createdAt,value
2022-12-25T00:01:22.041Z,82.56
2022-12-25T00:03:49.222Z,82.67
2022-12-25T00:06:16.671Z,82.75
2022-12-25T00:08:43.374Z,82.73
2022-12-25T00:11:14.222Z,82.93
2022-12-25T00:13:41.481Z,82.95
2022-12-25T00:16:09.325Z,83.31
2022-12-25T00:18:36.122Z,83.47
2022-12-25T00:21:04.368Z,83.30
2022-12-25T00:23:33.330Z,83.58
2022-12-25T00:26:00.045Z,83.57
2022-12-25T00:28:27.638Z,83.70
2022-12-25T00:30:54.371Z,83.65
2022-12-25T00:33:21.187Z,83.43
2022-12-25T00:35:58.752Z,83.68
2022-12-25T00:38:25.996Z,83.52
2022-12-25T00:40:53.088Z,83.72
2022-12-25T00:43:20.197Z,83.82
2022-12-25T00:45:59.938Z,83.78
2022-12-25T00:48:27.201Z,83.85
2022-12-25T00:50:57.780Z,83.83
2022-12-25T00:53:25.336Z,83.90
2022-12-25T00:55:56.507Z,84.09
2022-12-25T00:58:24.499Z,83.96
2022-12-25T01:00:51.186Z,83.95
2022-12-25T01:03:18.400Z,84.10
2022-12-25T01:05:45.558Z,84.08
2022-12-25T01:08:13.908Z,84.24
2022-12-25T01:10:40.655Z,84.17
2022-12-25T01:13:08.266Z,84.35
2022-12-25T01:15:36.681Z,84.13
2022-12-25T01:18:07.781Z,84.13
2022-12-25T01:20:35.969Z,84.15
2022-12-25T01:23:02.745Z,84.19
2022-12-25T01:25:29.488Z,84.20
2022-12-25T01:27:56.126Z,84.31
2022-12-25T01:30:23.790Z,84.16
2022-12-25T01:32:50.519Z,84.21
2022-12-25T01:35:17.368Z,84.37
2022-12-25T01:37:44.058Z,84.58
2022-12-25T01:40:10.936Z,84.52
2022-12-25T01:42:37.697Z,84.39
2022-12-25T01:45:16.689Z,84.54
2022-12-25T01:48:13.141Z,84.62
2022-12-25T01:50:42.434Z,84.62
2022-12-25T01:53:09.262Z,84.56
2022-12-25T01:55:36.436Z,84.53
2022-12-25T01:58:03.529Z,84.51
2022-12-25T02:00:30.384Z,84.77
2022-12-25T02:02:57.945Z,84.70
2022-12-25T02:05:24.891Z,84.76
2022-12-25T02:07:52.435Z,84.79
2022-12-25T02:10:19.367Z,84.80
2022-12-25T02:12:47.733Z,84.56
2022-12-25T02:15:19.843Z,84.62
2022-12-25T02:17:55.734Z,84.87
2022-12-25T02:20:30.597Z,85.05
2022-12-25T02:23:16.045Z,84.92
2022-12-25T02:25:48.831Z,84.83
2022-12-25T02:28:18.628Z,84.81
2022-12-25T02:30:55.085Z,84.78
2022-12-25T02:33:47.146Z,84.99
2022-12-25T02:36:15.963Z,84.82
2022-12-25T02:39:05.350Z,84.90
2022-12-25T02:41:35.154Z,84.93
2022-12-25T02:44:22.172Z,84.81
2022-12-25T02:47:09.097Z,85.07
2022-12-25T02:49:55.568Z,84.88
2022-12-25T02:52:41.786Z,84.90
2022-12-25T02:55:30.207Z,85.00
2022-12-25T02:58:18.453Z,85.03
2022-12-25T03:01:06.175Z,85.11
2022-12-25T03:03:55.288Z,85.14
2022-12-25T03:06:41.497Z,85.01
2022-12-25T03:09:28.399Z,85.10
2022-12-25T03:11:59.382Z,84.95
2022-12-25T03:14:44.398Z,85.32
2022-12-25T03:17:11.265Z,85.21
2022-12-25T03:19:56.772Z,85.26
2022-12-25T03:22:43.432Z,85.25
2022-12-25T03:25:29.062Z,85.01
2022-12-25T03:27:57.090Z,85.17
2022-12-25T03:30:45.551Z,85.33
2022-12-25T03:33:44.470Z,85.37
2022-12-25T03:36:26.348Z,85.36
2022-12-25T03:39:05.319Z,85.40
2022-12-25T03:41:50.573Z,85.43
2022-12-25T03:44:32.318Z,85.29
2022-12-25T03:47:24.064Z,85.42
2022-12-25T03:50:17.292Z,85.55
2022-12-25T03:53:03.835Z,85.80
2022-12-25T03:55:49.473Z,85.92
2022-12-25T03:58:42.517Z,86.02
2022-12-25T04:01:27.802Z,86.27
2022-12-25T04:04:13.163Z,86.22
2022-12-25T04:06:58.295Z,86.29
2022-12-25T04:09:44.391Z,86.21
2022-12-25T04:12:30.625Z,86.20
2022-12-25T04:15:15.603Z,86.49
2022-12-25T04:18:00.815Z,86.42
2022-12-25T04:20:46.620Z,86.46
2022-12-25T04:23:32.737Z,86.30
2022-12-25T04:26:17.995Z,86.33
2022-12-25T04:29:03.150Z,86.41
2022-12-25T04:31:48.400Z,86.63
2022-12-25T04:34:33.489Z,86.40
2022-12-25T04:37:00.315Z,86.45
2022-12-25T04:39:26.989Z,86.59
2022-12-25T04:41:53.795Z,86.85
2022-12-25T04:44:20.430Z,86.77
2022-12-25T04:46:48.032Z,86.87
2022-12-25T04:49:14.834Z,87.20
2022-12-25T04:51:41.598Z,86.84
2022-12-25T04:54:08.270Z,86.96
2022-12-25T04:56:38.526Z,86.95
2022-12-25T04:59:09.359Z,87.04
2022-12-25T05:01:36.216Z,87.32
2022-12-25T05:04:03.149Z,87.14
2022-12-25T05:06:29.837Z,87.23
2022-12-25T05:08:56.616Z,87.13
2022-12-25T05:11:23.339Z,87.13
2022-12-25T05:13:50.184Z,87.13
2022-12-25T05:16:18.482Z,87.43
2022-12-25T05:18:45.716Z,87.39
2022-12-25T05:21:12.638Z,87.40
2022-12-25T05:23:48.546Z,87.28
2022-12-25T05:26:16.815Z,87.41
2022-12-25T05:28:43.668Z,87.15
2022-12-25T05:31:11.724Z,87.46
2022-12-25T05:33:38.569Z,87.41
2022-12-25T05:36:07.460Z,87.42
2022-12-25T05:38:34.349Z,87.51
2022-12-25T05:41:01.298Z,87.52
2022-12-25T05:43:29.018Z,87.19
2022-12-25T05:45:57.787Z,87.45
2022-12-25T05:48:24.434Z,87.35
2022-12-25T05:50:52.321Z,87.39
2022-12-25T05:53:19.999Z,87.29
2022-12-25T05:55:48.808Z,87.63
2022-12-25T05:58:15.497Z,87.63
2022-12-25T06:00:43.668Z,87.45
2022-12-25T06:03:10.474Z,87.50
2022-12-25T06:05:38.113Z,87.66
2022-12-25T06:08:04.819Z,87.75
2022-12-25T06:10:31.569Z,87.47
2022-12-25T06:12:58.299Z,87.57
2022-12-25T06:15:25.923Z,87.78
2022-12-25T06:17:52.567Z,87.67
2022-12-25T06:20:20.101Z,87.87
2022-12-25T06:22:46.999Z,87.77
2022-12-25T06:25:13.880Z,87.67
2022-12-25T06:27:40.556Z,87.89
2022-12-25T06:30:07.686Z,87.72
2022-12-25T06:32:34.401Z,87.73
2022-12-25T06:35:01.331Z,87.89
2022-12-25T06:37:28.080Z,87.79
2022-12-25T06:39:55.198Z,87.98
2022-12-25T06:42:21.939Z,87.90
2022-12-25T06:44:48.759Z,87.97
2022-12-25T06:47:15.434Z,88.02
2022-12-25T06:49:43.039Z,87.77
2022-12-25T06:52:09.732Z,87.76
2022-12-25T06:54:37.378Z,87.93
2022-12-25T06:57:04.107Z,87.85
2022-12-25T06:59:30.843Z,87.97
2022-12-25T07:01:57.678Z,87.81
2022-12-25T07:04:32.357Z,87.91
2022-12-25T07:07:04.451Z,87.64
2022-12-25T07:09:35.096Z,87.60
2022-12-25T07:12:13.817Z,87.94
2022-12-25T07:14:40.691Z,87.83
2022-12-25T07:17:07.436Z,87.68
2022-12-25T07:19:37.119Z,87.72
2022-12-25T07:22:06.472Z,87.51
2022-12-25T07:24:33.163Z,87.50
2022-12-25T07:26:59.973Z,87.51
2022-12-25T07:29:26.710Z,87.45
2022-12-25T07:31:53.467Z,87.44
2022-12-25T07:34:20.210Z,87.59
2022-12-25T07:36:47.071Z,87.35
2022-12-25T07:39:13.825Z,87.27
2022-12-25T07:41:40.540Z,87.19
2022-12-25T07:44:14.210Z,87.27
2022-12-25T07:46:40.958Z,87.29
2022-12-25T07:49:07.703Z,87.15
2022-12-25T07:51:34.591Z,87.28
2022-12-25T07:54:01.286Z,87.04
2022-12-25T07:56:28.819Z,87.00
2022-12-25T07:58:55.642Z,87.07
2022-12-25T08:01:26.853Z,86.99
2022-12-25T08:03:58.796Z,86.85
2022-12-25T08:06:30.049Z,86.85
2022-12-25T08:08:58.180Z,86.66
2022-12-25T08:11:24.896Z,86.53
2022-12-25T08:13:52.558Z,86.32
2022-12-25T08:16:19.277Z,86.40
2022-12-25T08:18:46.045Z,86.43
2022-12-25T08:21:13.647Z,86.05
2022-12-25T08:23:42.849Z,86.24
2022-12-25T08:26:14.811Z,86.04
2022-12-25T08:28:42.395Z,85.89
2022-12-25T08:31:16.668Z,85.82
2022-12-25T08:33:44.313Z,85.71
2022-12-25T08:36:11.942Z,85.64
2022-12-25T08:38:39.776Z,85.55
2022-12-25T08:41:06.975Z,85.60
2022-12-25T08:43:33.771Z,85.37
2022-12-25T08:46:00.533Z,84.93
2022-12-25T08:48:28.063Z,85.14
2022-12-25T08:50:54.839Z,84.77
2022-12-25T08:53:21.913Z,84.82
2022-12-25T08:55:48.643Z,84.71
2022-12-25T08:58:16.831Z,84.46
2022-12-25T09:00:43.643Z,84.26
2022-12-25T09:03:10.526Z,84.32
2022-12-25T09:05:41.027Z,84.05
2022-12-25T09:08:08.038Z,83.90
2022-12-25T09:10:37.859Z,83.53
2022-12-25T09:13:04.714Z,83.23
2022-12-25T09:15:31.528Z,83.22
2022-12-25T09:17:59.174Z,82.99
2022-12-25T09:20:25.888Z,82.81
2022-12-25T09:22:52.712Z,82.81
2022-12-25T09:25:19.397Z,82.65
2022-12-25T09:27:46.565Z,82.49
2022-12-25T09:30:13.364Z,82.43
2022-12-25T09:32:40.634Z,82.29
2022-12-25T09:35:08.121Z,82.29
2022-12-25T09:37:36.216Z,82.14
2022-12-25T09:40:03.130Z,81.71
2022-12-25T09:42:34.777Z,81.47
2022-12-25T09:45:09.977Z,81.54
2022-12-25T09:47:38.615Z,81.29
2022-12-25T09:50:12.279Z,81.28
2022-12-25T09:52:46.662Z,81.06
2022-12-25T09:55:19.748Z,81.03
2022-12-25T09:57:56.050Z,80.88
2022-12-25T10:00:24.956Z,80.77
2022-12-25T10:02:56.980Z,80.87
2022-12-25T10:05:39.077Z,80.33
2022-12-25T10:08:38.133Z,80.26
2022-12-25T10:11:24.992Z,79.97
2022-12-25T10:13:54.586Z,79.66
2022-12-25T10:16:44.572Z,79.72
2022-12-25T10:19:24.852Z,79.51
2022-12-25T10:21:55.638Z,79.20
2022-12-25T10:24:30.881Z,79.20
2022-12-25T10:27:01.540Z,78.96
2022-12-25T10:29:30.812Z,78.91
2022-12-25T10:31:57.664Z,78.85
2022-12-25T10:34:24.766Z,78.50
2022-12-25T10:36:51.472Z,78.75
2022-12-25T10:39:19.371Z,78.70
2022-12-25T10:41:46.102Z,78.56
2022-12-25T10:44:24.629Z,78.31
2022-12-25T10:46:53.019Z,78.61
2022-12-25T10:49:20.959Z,78.51
2022-12-25T10:51:48.116Z,78.56
2022-12-25T10:54:20.281Z,78.80
2022-12-25T10:56:54.651Z,78.89
2022-12-25T10:59:21.627Z,78.69
2022-12-25T11:01:53.588Z,78.78
2022-12-25T11:04:24.722Z,78.53
2022-12-25T11:07:00.540Z,78.47
2022-12-25T11:09:27.837Z,78.33
2022-12-25T11:11:54.638Z,78.44
2022-12-25T11:14:22.881Z,78.20
2022-12-25T11:16:50.679Z,78.25
2022-12-25T11:19:20.608Z,77.90
2022-12-25T11:21:50.858Z,78.28
2022-12-25T11:24:22.252Z,78.06
2022-12-25T11:26:52.886Z,78.04
2022-12-25T11:29:25.313Z,78.01
2022-12-25T11:31:53.716Z,78.22
2022-12-25T11:34:46.892Z,78.38
2022-12-25T11:37:36.063Z,78.35
2022-12-25T11:40:04.928Z,78.51
2022-12-25T11:42:39.182Z,78.18
2022-12-25T11:45:18.493Z,78.38
2022-12-25T11:47:54.183Z,78.54
2022-12-25T11:50:39.951Z,78.84
2022-12-25T11:56:12.460Z,78.89
2022-12-25T11:58:42.314Z,79.04
2022-12-25T12:01:21.669Z,79.02
2022-12-25T12:03:49.556Z,79.33
2022-12-25T12:06:31.523Z,79.45
2022-12-25T12:09:18.810Z,79.46
2022-12-25T12:11:53.970Z,79.65
2022-12-25T12:14:23.785Z,79.74
2022-12-25T12:16:51.828Z,79.86
2022-12-25T12:19:34.767Z,79.85
2022-12-25T12:22:06.873Z,79.86
2022-12-25T12:24:44.453Z,79.62
2022-12-25T12:27:37.816Z,79.55
2022-12-25T12:30:06.153Z,79.76
2022-12-25T12:32:48.858Z,79.68
2022-12-25T12:35:18.648Z,79.96
2022-12-25T12:38:06.529Z,79.80
2022-12-25T12:40:58.387Z,79.79
2022-12-25T12:43:43.504Z,79.95
2022-12-25T12:46:31.574Z,79.55
2022-12-25T12:49:18.420Z,79.76
2022-12-25T12:51:45.628Z,79.82
2022-12-25T12:54:20.283Z,79.86
2022-12-25T12:57:11.018Z,79.92
2022-12-25T12:59:47.523Z,79.79
2022-12-25T13:02:35.825Z,79.76
2022-12-25T13:05:21.183Z,79.92
2022-12-25T13:07:52.606Z,79.87
2022-12-25T13:10:29.008Z,79.94
2022-12-25T13:13:17.963Z,80.08
2022-12-25T13:15:47.588Z,79.94
2022-12-25T13:18:14.539Z,80.29
2022-12-25T13:21:11.157Z,80.08
2022-12-25T13:23:41.436Z,80.09
2022-12-25T13:26:15.009Z,80.12
2022-12-25T13:28:43.214Z,80.25
2022-12-25T13:31:22.081Z,80.26
2022-12-25T13:33:56.907Z,80.19
2022-12-25T13:36:26.313Z,80.46
2022-12-25T13:39:04.899Z,80.55
2022-12-25T13:42:05.652Z,80.39
2022-12-25T13:44:51.498Z,80.46
2022-12-25T13:47:35.748Z,80.46
2022-12-25T13:50:24.945Z,80.64
2022-12-25T13:52:55.206Z,80.74
2022-12-25T13:55:27.735Z,80.72
2022-12-25T13:58:01.942Z,80.66
2022-12-25T14:00:37.897Z,80.84
2022-12-25T14:03:16.450Z,80.73
2022-12-25T14:05:44.648Z,80.80
2022-12-25T14:08:34.646Z,80.94
2022-12-25T14:11:04.699Z,81.06
2022-12-25T14:13:56.176Z,81.28
2022-12-25T14:16:24.165Z,81.56
2022-12-25T14:18:52.070Z,81.69
2022-12-25T14:21:38.722Z,81.61
2022-12-25T14:24:13.042Z,81.73
2022-12-25T14:26:41.430Z,82.05
2022-12-25T14:29:17.686Z,82.08
2022-12-25T14:31:52.808Z,82.10
2022-12-25T14:34:24.934Z,82.12
2022-12-25T14:36:56.340Z,82.40
2022-12-25T14:39:29.758Z,82.27
2022-12-25T14:41:58.589Z,82.70
2022-12-25T14:44:44.860Z,82.65
2022-12-25T14:47:17.571Z,82.74
2022-12-25T14:49:47.006Z,82.70
2022-12-25T14:52:28.578Z,82.78
2022-12-25T14:55:06.900Z,82.96
2022-12-25T14:57:39.171Z,82.94
2022-12-25T15:00:22.101Z,83.32
2022-12-25T15:02:56.255Z,83.19
2022-12-25T15:05:32.093Z,83.21
2022-12-25T15:08:20.494Z,83.31
2022-12-25T15:11:05.101Z,83.29
2022-12-25T15:13:33.078Z,83.41
2022-12-25T15:16:09.329Z,83.28
2022-12-25T15:18:41.580Z,83.50
2022-12-25T15:21:26.545Z,83.52
2022-12-25T15:23:54.934Z,83.57
2022-12-25T15:26:25.813Z,83.58
2022-12-25T15:28:52.817Z,83.80
2022-12-25T15:31:27.969Z,83.56
2022-12-25T15:33:58.259Z,83.71
2022-12-25T15:36:28.304Z,83.71
2022-12-25T15:38:56.713Z,83.97
2022-12-25T15:41:54.526Z,83.83
2022-12-25T15:44:25.500Z,84.11
2022-12-25T15:46:52.859Z,84.25
2022-12-25T15:49:19.892Z,84.25
2022-12-25T15:51:51.262Z,84.34
2022-12-25T15:54:18.975Z,84.50
2022-12-25T15:56:56.590Z,84.63
2022-12-25T15:59:26.949Z,84.55
2022-12-25T16:01:55.494Z,84.52
2022-12-25T16:04:23.723Z,84.87
2022-12-25T16:06:52.660Z,84.94
2022-12-25T16:09:35.112Z,84.87
2022-12-25T16:12:03.174Z,84.93
2022-12-25T16:14:30.091Z,84.94
2022-12-25T16:17:01.560Z,85.21
2022-12-25T16:19:32.320Z,85.11
2022-12-25T16:22:00.936Z,85.25
2022-12-25T16:24:30.948Z,85.19
2022-12-25T16:26:58.950Z,85.39
2022-12-25T16:29:26.849Z,85.20
2022-12-25T16:31:53.899Z,85.25
2022-12-25T16:34:23.413Z,85.16
2022-12-25T16:36:51.880Z,85.35
2022-12-25T16:39:19.819Z,85.44
2022-12-25T16:41:48.486Z,85.42
2022-12-25T16:44:15.992Z,85.47
2022-12-25T16:46:55.296Z,85.47
2022-12-25T16:49:25.479Z,85.41
2022-12-25T16:52:04.772Z,85.60
2022-12-25T16:54:32.035Z,85.46
2022-12-25T16:57:01.033Z,85.56
2022-12-25T16:59:28.594Z,85.68
2022-12-25T17:01:56.755Z,85.55
2022-12-25T17:04:26.142Z,85.83
2022-12-25T17:06:53.010Z,85.95
2022-12-25T17:09:19.815Z,85.82
2022-12-25T17:11:48.237Z,85.89
2022-12-25T17:14:17.308Z,86.06
2022-12-25T17:16:45.543Z,86.23
2022-12-25T17:19:19.479Z,86.18
2022-12-25T17:21:47.446Z,86.02
2022-12-25T17:24:15.491Z,86.11
2022-12-25T17:26:44.027Z,86.08
2022-12-25T17:29:19.971Z,86.09
2022-12-25T17:31:51.565Z,86.19
2022-12-25T17:34:19.080Z,85.98
2022-12-25T17:36:49.722Z,86.18
2022-12-25T17:39:19.689Z,86.21
2022-12-25T17:41:49.039Z,86.45
2022-12-25T17:44:20.600Z,86.38
2022-12-25T17:46:49.922Z,86.36
2022-12-25T17:49:18.568Z,86.58
2022-12-25T17:51:47.236Z,86.52
2022-12-25T17:54:14.506Z,86.40
2022-12-25T17:56:43.712Z,86.55
2022-12-25T17:59:20.337Z,86.46
2022-12-25T18:01:49.325Z,86.21
2022-12-25T18:04:19.382Z,86.16
2022-12-25T18:06:49.853Z,86.12
2022-12-25T18:09:22.219Z,86.05
2022-12-25T18:11:50.099Z,86.04
2022-12-25T18:14:18.444Z,85.56
2022-12-25T18:16:48.754Z,85.32
2022-12-25T18:19:18.563Z,84.81
2022-12-25T18:21:46.118Z,84.58
2022-12-25T18:24:14.271Z,84.12
2022-12-25T18:26:43.541Z,83.82
2022-12-25T18:29:11.502Z,83.84
2022-12-25T18:31:40.028Z,83.73
2022-12-25T18:34:11.391Z,83.58
2022-12-25T18:36:39.265Z,83.50
2022-12-25T18:39:06.524Z,83.37
2022-12-25T18:41:55.851Z,83.17
2022-12-25T18:44:23.412Z,83.01
2022-12-25T18:46:50.315Z,82.77
2022-12-25T18:49:18.404Z,82.63
2022-12-25T18:51:45.131Z,82.80
2022-12-25T18:54:15.802Z,82.78
2022-12-25T18:56:43.195Z,82.27
2022-12-25T18:59:12.461Z,82.30
2022-12-25T19:01:40.281Z,82.25
2022-12-25T19:04:15.408Z,82.27
2022-12-25T19:06:43.630Z,82.36
2022-12-25T19:09:13.303Z,82.25
2022-12-25T19:11:46.785Z,82.19
2022-12-25T19:14:15.879Z,82.25
2022-12-25T19:16:43.394Z,82.15
2022-12-25T19:19:14.667Z,82.24
2022-12-25T19:21:43.430Z,82.43
2022-12-25T19:24:11.383Z,82.44
2022-12-25T19:26:38.210Z,82.41
2022-12-25T19:29:08.656Z,82.49
2022-12-25T19:31:38.606Z,82.52
2022-12-25T19:34:07.831Z,82.68
2022-12-25T19:36:39.365Z,82.74
2022-12-25T19:39:09.840Z,82.67
2022-12-25T19:41:38.222Z,82.82
2022-12-25T19:44:05.691Z,82.98
2022-12-25T19:47:02.932Z,83.07
2022-12-25T19:49:34.848Z,82.89
2022-12-25T19:52:05.421Z,82.98
2022-12-25T19:54:37.158Z,83.20
2022-12-25T19:57:07.851Z,83.10
2022-12-25T19:59:36.043Z,83.35
2022-12-25T20:02:06.198Z,83.23
2022-12-25T20:04:38.942Z,83.15
2022-12-25T20:07:07.109Z,83.23
2022-12-25T20:09:36.150Z,83.68
2022-12-25T20:12:04.712Z,83.62
2022-12-25T20:14:32.592Z,83.65
2022-12-25T20:17:00.325Z,83.37
2022-12-25T20:19:28.660Z,83.52
2022-12-25T20:21:56.263Z,83.65
2022-12-25T20:24:27.406Z,83.66
2022-12-25T20:26:59.128Z,83.65
2022-12-25T20:29:27.730Z,83.73
2022-12-25T20:32:00.711Z,83.86
2022-12-25T20:34:29.633Z,83.89
2022-12-25T20:36:57.356Z,83.84
2022-12-25T20:39:27.328Z,83.98
2022-12-25T20:41:55.446Z,83.75
2022-12-25T20:44:22.246Z,83.93
2022-12-25T20:46:50.419Z,83.76
2022-12-25T20:49:19.729Z,84.00
2022-12-25T20:51:47.325Z,83.89
2022-12-25T20:54:17.488Z,83.81
2022-12-25T20:56:44.264Z,83.80
2022-12-25T20:59:12.669Z,83.82
2022-12-25T21:01:41.986Z,83.49
2022-12-25T21:04:12.975Z,83.39
2022-12-25T21:06:45.257Z,83.10
2022-12-25T21:09:13.843Z,83.03
2022-12-25T21:11:41.666Z,83.03
2022-12-25T21:14:10.116Z,82.92
2022-12-25T21:16:40.762Z,82.73
2022-12-25T21:19:09.349Z,82.72
2022-12-25T21:21:43.238Z,82.81
2022-12-25T21:24:11.464Z,82.65
2022-12-25T21:26:44.419Z,82.89
2022-12-25T21:29:16.810Z,83.01
2022-12-25T21:32:04.570Z,82.91
2022-12-25T21:34:31.398Z,83.17
2022-12-25T21:37:01.523Z,83.22
2022-12-25T21:39:28.451Z,83.45
2022-12-25T21:41:56.302Z,83.49
2022-12-25T21:44:27.469Z,83.63
2022-12-25T21:46:54.421Z,83.37
2022-12-25T21:49:42.100Z,83.67
2022-12-25T21:52:11.550Z,83.76
2022-12-25T21:54:38.979Z,83.68
2022-12-25T21:57:07.057Z,83.84
2022-12-25T21:59:37.127Z,84.14
2022-12-25T22:02:11.635Z,84.18
2022-12-25T22:04:39.625Z,84.23
2022-12-25T22:07:19.502Z,84.45
2022-12-25T22:09:53.354Z,84.41
2022-12-25T22:12:40.165Z,84.61
2022-12-25T22:15:12.177Z,84.54
2022-12-25T22:17:59.156Z,84.76
2022-12-25T22:20:38.054Z,84.72
2022-12-25T22:23:07.769Z,84.95
2022-12-25T22:25:35.507Z,84.85
2022-12-25T22:28:04.529Z,85.06
2022-12-25T22:30:32.616Z,85.24
2022-12-25T22:33:03.453Z,85.12
2022-12-25T22:35:30.433Z,85.24
2022-12-25T22:37:57.587Z,85.21
2022-12-25T22:40:25.403Z,85.29
2022-12-25T22:42:55.891Z,85.33
2022-12-25T22:45:25.925Z,85.48
2022-12-25T22:47:53.505Z,85.63
2022-12-25T22:50:23.555Z,85.54
2022-12-25T22:52:54.074Z,85.61
2022-12-25T22:58:05.814Z,85.90
2022-12-25T23:00:39.744Z,85.96
2022-12-25T23:03:11.720Z,86.38
2022-12-25T23:05:40.324Z,86.36
2022-12-25T23:08:08.587Z,86.29
2022-12-25T23:10:36.599Z,86.33
2022-12-25T23:13:22.308Z,86.32
2022-12-25T23:15:51.578Z,86.42
2022-12-25T23:18:38.399Z,86.40
2022-12-25T23:21:26.271Z,86.39
2022-12-25T23:24:13.484Z,86.53
2022-12-25T23:26:41.514Z,86.66
2022-12-25T23:29:29.036Z,86.31
2022-12-25T23:31:59.344Z,86.42
2022-12-25T23:34:30.571Z,86.62
2022-12-25T23:36:57.754Z,86.49
2022-12-25T23:39:28.534Z,86.36
2022-12-25T23:41:59.073Z,86.68
2022-12-25T23:44:28.891Z,86.52
2022-12-25T23:46:56.979Z,86.59
2022-12-25T23:49:27.756Z,86.39
2022-12-25T23:51:54.764Z,86.57
2022-12-25T23:54:24.018Z,86.51
2022-12-25T23:59:33.660Z,86.66
